sensor_id;sensor_type;location;lat;lon;timestamp;temperature;humidity
3564;DHT22;1796;52.388;13.096;2022-12-07T00:00:20;2.00;99.90
3564;DHT22;1796;52.388;13.096;2022-12-07T00:02:47;2.00;99.90
3564;DHT22;1796;52.388;13.096;2022-12-07T00:05:14;2.00;99.90
3564;DHT22;1796;52.388;13.096;2022-12-07T00:07:41;1.90;99.90
3564;DHT22;1796;52.388;13.096;2022-12-07T00:10:08;1.90;99.90
3564;DHT22;1796;52.388;13.096;2022-12-07T00:12:35;1.80;99.90
3564;DHT22;1796;52.388;13.096;2022-12-07T00:15:04;1.80;99.90
3564;DHT22;1796;52.388;13.096;2022-12-07T00:17:31;1.80;99.90
3564;DHT22;1796;52.388;13.096;2022-12-07T00:19:59;1.70;99.90
3564;DHT22;1796;52.388;13.096;2022-12-07T00:22:25;1.60;99.90
3564;DHT22;1796;52.388;13.096;2022-12-07T00:24:52;1.60;99.90
3564;DHT22;1796;52.388;13.096;2022-12-07T00:27:19;1.50;99.90
3564;DHT22;1796;52.388;13.096;2022-12-07T00:29:46;1.50;99.90
3564;DHT22;1796;52.388;13.096;2022-12-07T00:32:14;1.40;99.90
3564;DHT22;1796;52.388;13.096;2022-12-07T00:34:41;1.40;99.90
3564;DHT22;1796;52.388;13.096;2022-12-07T00:37:08;1.40;99.90
3564;DHT22;1796;52.388;13.096;2022-12-07T00:39:34;1.40;99.90
3564;DHT22;1796;52.388;13.096;2022-12-07T00:42:01;1.40;99.90
3564;DHT22;1796;52.388;13.096;2022-12-07T00:44:28;1.40;99.90
3564;DHT22;1796;52.388;13.096;2022-12-07T00:46:55;1.50;99.90
3564;DHT22;1796;52.388;13.096;2022-12-07T00:49:23;1.50;99.90
3564;DHT22;1796;52.388;13.096;2022-12-07T00:51:50;1.50;99.90
3564;DHT22;1796;52.388;13.096;2022-12-07T00:54:17;1.60;99.90
3564;DHT22;1796;52.388;13.096;2022-12-07T00:56:44;1.50;99.90
3564;DHT22;1796;52.388;13.096;2022-12-07T00:59:12;1.60;99.90
3564;DHT22;1796;52.388;13.096;2022-12-07T01:01:40;1.60;99.90
3564;DHT22;1796;52.388;13.096;2022-12-07T01:04:08;1.60;99.90
3564;DHT22;1796;52.388;13.096;2022-12-07T01:06:36;1.50;99.90
3564;DHT22;1796;52.388;13.096;2022-12-07T01:09:03;1.40;99.90
3564;DHT22;1796;52.388;13.096;2022-12-07T01:11:32;1.40;99.90
3564;DHT22;1796;52.388;13.096;2022-12-07T01:14:00;1.30;99.90
3564;DHT22;1796;52.388;13.096;2022-12-07T01:16:28;1.20;99.90
3564;DHT22;1796;52.388;13.096;2022-12-07T01:18:56;1.20;99.90
3564;DHT22;1796;52.388;13.096;2022-12-07T01:21:25;1.10;99.90
3564;DHT22;1796;52.388;13.096;2022-12-07T01:23:53;1.10;99.90
3564;DHT22;1796;52.388;13.096;2022-12-07T01:26:21;1.00;99.90
3564;DHT22;1796;52.388;13.096;2022-12-07T01:28:49;1.00;99.90
3564;DHT22;1796;52.388;13.096;2022-12-07T01:31:18;0.80;99.90
3564;DHT22;1796;52.388;13.096;2022-12-07T01:33:47;0.80;99.90
3564;DHT22;1796;52.388;13.096;2022-12-07T01:36:16;0.80;99.90
3564;DHT22;1796;52.388;13.096;2022-12-07T01:38:44;0.80;99.90
3564;DHT22;1796;52.388;13.096;2022-12-07T01:41:13;0.80;99.90
3564;DHT22;1796;52.388;13.096;2022-12-07T01:46:48;0.90;99.90
3564;DHT22;1796;52.388;13.096;2022-12-07T01:49:21;0.90;99.90
3564;DHT22;1796;52.388;13.096;2022-12-07T01:51:51;0.90;99.90
3564;DHT22;1796;52.388;13.096;2022-12-07T01:54:20;0.90;99.90
3564;DHT22;1796;52.388;13.096;2022-12-07T01:56:52;0.90;99.90
3564;DHT22;1796;52.388;13.096;2022-12-07T01:59:22;0.90;99.90
3564;DHT22;1796;52.388;13.096;2022-12-07T02:01:51;0.90;99.90
3564;DHT22;1796;52.388;13.096;2022-12-07T02:04:18;0.90;99.90
3564;DHT22;1796;52.388;13.096;2022-12-07T02:06:45;0.90;99.90
3564;DHT22;1796;52.388;13.096;2022-12-07T02:09:13;1.00;99.90
3564;DHT22;1796;52.388;13.096;2022-12-07T02:11:40;1.00;99.90
3564;DHT22;1796;52.388;13.096;2022-12-07T02:14:09;1.10;99.90
3564;DHT22;1796;52.388;13.096;2022-12-07T02:16:42;1.10;99.90
3564;DHT22;1796;52.388;13.096;2022-12-07T02:22:28;1.00;99.90
3564;DHT22;1796;52.388;13.096;2022-12-07T02:25:08;1.10;99.90
3564;DHT22;1796;52.388;13.096;2022-12-07T02:27:43;1.10;99.90
3564;DHT22;1796;52.388;13.096;2022-12-07T02:30:14;1.10;99.90
3564;DHT22;1796;52.388;13.096;2022-12-07T02:32:46;1.10;99.90
3564;DHT22;1796;52.388;13.096;2022-12-07T02:35:18;1.10;99.90
3564;DHT22;1796;52.388;13.096;2022-12-07T02:37:53;1.20;99.90
3564;DHT22;1796;52.388;13.096;2022-12-07T02:40:25;1.20;99.90
3564;DHT22;1796;52.388;13.096;2022-12-07T02:42:58;1.10;99.90
3564;DHT22;1796;52.388;13.096;2022-12-07T02:45:29;1.10;99.90
3564;DHT22;1796;52.388;13.096;2022-12-07T02:47:59;1.20;99.90
3564;DHT22;1796;52.388;13.096;2022-12-07T02:50:27;1.10;99.90
3564;DHT22;1796;52.388;13.096;2022-12-07T02:52:54;1.10;99.90
3564;DHT22;1796;52.388;13.096;2022-12-07T02:55:29;1.10;99.90
3564;DHT22;1796;52.388;13.096;2022-12-07T02:58:15;1.10;99.90
3564;DHT22;1796;52.388;13.096;2022-12-07T03:00:54;1.10;99.90
3564;DHT22;1796;52.388;13.096;2022-12-07T03:03:24;1.10;99.90
3564;DHT22;1796;52.388;13.096;2022-12-07T03:06:10;1.10;99.90
3564;DHT22;1796;52.388;13.096;2022-12-07T03:08:47;1.10;99.90
3564;DHT22;1796;52.388;13.096;2022-12-07T03:11:19;1.10;99.90
3564;DHT22;1796;52.388;13.096;2022-12-07T03:13:52;1.10;99.90
3564;DHT22;1796;52.388;13.096;2022-12-07T03:16:25;1.10;99.90
3564;DHT22;1796;52.388;13.096;2022-12-07T03:18:57;1.10;99.90
3564;DHT22;1796;52.388;13.096;2022-12-07T03:21:27;1.20;99.90
3564;DHT22;1796;52.388;13.096;2022-12-07T03:24:00;1.20;99.90
3564;DHT22;1796;52.388;13.096;2022-12-07T03:26:32;1.20;99.90
3564;DHT22;1796;52.388;13.096;2022-12-07T03:29:06;1.20;99.90
3564;DHT22;1796;52.388;13.096;2022-12-07T03:31:38;1.20;99.90
3564;DHT22;1796;52.388;13.096;2022-12-07T03:34:09;1.30;99.90
3564;DHT22;1796;52.388;13.096;2022-12-07T03:36:40;1.30;99.90
3564;DHT22;1796;52.388;13.096;2022-12-07T03:39:16;1.40;99.90
3564;DHT22;1796;52.388;13.096;2022-12-07T03:41:44;1.40;99.90
3564;DHT22;1796;52.388;13.096;2022-12-07T03:44:12;1.40;99.90
3564;DHT22;1796;52.388;13.096;2022-12-07T03:46:45;1.40;99.90
3564;DHT22;1796;52.388;13.096;2022-12-07T03:49:23;1.50;99.90
3564;DHT22;1796;52.388;13.096;2022-12-07T03:51:55;1.40;99.90
3564;DHT22;1796;52.388;13.096;2022-12-07T03:54:29;1.50;99.90
3564;DHT22;1796;52.388;13.096;2022-12-07T03:56:58;1.40;99.90
3564;DHT22;1796;52.388;13.096;2022-12-07T03:59:25;1.40;99.90
3564;DHT22;1796;52.388;13.096;2022-12-07T04:01:55;1.30;99.90
3564;DHT22;1796;52.388;13.096;2022-12-07T04:04:22;1.30;99.90
3564;DHT22;1796;52.388;13.096;2022-12-07T04:06:49;1.20;99.90
3564;DHT22;1796;52.388;13.096;2022-12-07T04:09:16;1.20;99.90
3564;DHT22;1796;52.388;13.096;2022-12-07T04:11:43;1.10;99.90
3564;DHT22;1796;52.388;13.096;2022-12-07T04:14:10;1.20;99.90
3564;DHT22;1796;52.388;13.096;2022-12-07T04:16:47;1.30;99.90
3564;DHT22;1796;52.388;13.096;2022-12-07T04:19:17;1.30;99.90
3564;DHT22;1796;52.388;13.096;2022-12-07T04:21:44;1.40;99.90
3564;DHT22;1796;52.388;13.096;2022-12-07T04:24:12;1.40;99.90
3564;DHT22;1796;52.388;13.096;2022-12-07T04:26:40;1.40;99.90
3564;DHT22;1796;52.388;13.096;2022-12-07T04:29:07;1.40;99.90
3564;DHT22;1796;52.388;13.096;2022-12-07T04:31:34;1.50;99.90
3564;DHT22;1796;52.388;13.096;2022-12-07T04:34:01;1.50;99.90
3564;DHT22;1796;52.388;13.096;2022-12-07T04:36:30;1.60;99.90
3564;DHT22;1796;52.388;13.096;2022-12-07T04:38:57;1.70;99.90
3564;DHT22;1796;52.388;13.096;2022-12-07T04:41:24;1.70;99.90
3564;DHT22;1796;52.388;13.096;2022-12-07T04:43:54;1.70;99.90
3564;DHT22;1796;52.388;13.096;2022-12-07T04:46:21;1.70;99.90
3564;DHT22;1796;52.388;13.096;2022-12-07T04:48:48;1.80;99.90
3564;DHT22;1796;52.388;13.096;2022-12-07T04:51:18;1.80;99.90
3564;DHT22;1796;52.388;13.096;2022-12-07T04:53:48;1.80;99.90
3564;DHT22;1796;52.388;13.096;2022-12-07T04:56:16;1.80;99.90
3564;DHT22;1796;52.388;13.096;2022-12-07T04:58:44;1.80;99.90
3564;DHT22;1796;52.388;13.096;2022-12-07T05:01:11;1.90;99.90
3564;DHT22;1796;52.388;13.096;2022-12-07T05:03:38;1.90;99.90
3564;DHT22;1796;52.388;13.096;2022-12-07T05:06:06;1.90;99.90
3564;DHT22;1796;52.388;13.096;2022-12-07T05:08:33;1.90;99.90
3564;DHT22;1796;52.388;13.096;2022-12-07T05:11:02;1.90;99.90
3564;DHT22;1796;52.388;13.096;2022-12-07T05:13:29;1.90;99.90
3564;DHT22;1796;52.388;13.096;2022-12-07T05:15:56;2.00;99.90
3564;DHT22;1796;52.388;13.096;2022-12-07T05:18:23;2.00;99.90
3564;DHT22;1796;52.388;13.096;2022-12-07T05:20:50;2.10;99.90
3564;DHT22;1796;52.388;13.096;2022-12-07T05:23:17;2.10;99.90
3564;DHT22;1796;52.388;13.096;2022-12-07T05:25:45;2.10;99.90
3564;DHT22;1796;52.388;13.096;2022-12-07T05:28:13;2.20;99.90
3564;DHT22;1796;52.388;13.096;2022-12-07T05:30:40;2.20;99.90
3564;DHT22;1796;52.388;13.096;2022-12-07T05:33:06;2.20;99.90
3564;DHT22;1796;52.388;13.096;2022-12-07T05:35:33;2.20;99.90
3564;DHT22;1796;52.388;13.096;2022-12-07T05:38:00;2.20;99.90
3564;DHT22;1796;52.388;13.096;2022-12-07T05:40:27;2.20;99.90
3564;DHT22;1796;52.388;13.096;2022-12-07T05:42:54;2.30;99.90
3564;DHT22;1796;52.388;13.096;2022-12-07T05:45:21;2.30;99.90
3564;DHT22;1796;52.388;13.096;2022-12-07T05:47:48;2.30;99.90
3564;DHT22;1796;52.388;13.096;2022-12-07T05:50:15;2.30;99.90
3564;DHT22;1796;52.388;13.096;2022-12-07T05:52:42;2.30;99.90
3564;DHT22;1796;52.388;13.096;2022-12-07T05:55:09;2.30;99.90
3564;DHT22;1796;52.388;13.096;2022-12-07T05:57:35;2.30;99.90
3564;DHT22;1796;52.388;13.096;2022-12-07T06:00:04;2.40;99.90
3564;DHT22;1796;52.388;13.096;2022-12-07T06:02:31;2.40;99.90
3564;DHT22;1796;52.388;13.096;2022-12-07T06:04:58;2.40;99.90
3564;DHT22;1796;52.388;13.096;2022-12-07T06:07:25;2.50;99.90
3564;DHT22;1796;52.388;13.096;2022-12-07T06:09:52;2.40;99.90
3564;DHT22;1796;52.388;13.096;2022-12-07T06:12:19;2.50;99.90
3564;DHT22;1796;52.388;13.096;2022-12-07T06:15:00;2.50;99.90
3564;DHT22;1796;52.388;13.096;2022-12-07T06:17:27;2.50;99.90
3564;DHT22;1796;52.388;13.096;2022-12-07T06:19:55;2.60;99.90
3564;DHT22;1796;52.388;13.096;2022-12-07T06:22:22;2.60;99.90
3564;DHT22;1796;52.388;13.096;2022-12-07T06:24:49;2.70;99.90
3564;DHT22;1796;52.388;13.096;2022-12-07T06:27:15;2.60;99.90
3564;DHT22;1796;52.388;13.096;2022-12-07T06:29:42;2.70;99.90
3564;DHT22;1796;52.388;13.096;2022-12-07T06:32:09;2.70;99.90
3564;DHT22;1796;52.388;13.096;2022-12-07T06:34:37;2.70;99.90
3564;DHT22;1796;52.388;13.096;2022-12-07T06:37:05;2.70;99.90
3564;DHT22;1796;52.388;13.096;2022-12-07T06:39:32;2.80;99.90
3564;DHT22;1796;52.388;13.096;2022-12-07T06:41:59;2.90;99.90
3564;DHT22;1796;52.388;13.096;2022-12-07T06:44:26;2.90;99.90
3564;DHT22;1796;52.388;13.096;2022-12-07T06:46:54;2.90;99.90
3564;DHT22;1796;52.388;13.096;2022-12-07T06:49:21;3.00;99.90
3564;DHT22;1796;52.388;13.096;2022-12-07T06:51:47;3.00;99.90
3564;DHT22;1796;52.388;13.096;2022-12-07T06:54:16;3.00;99.90
3564;DHT22;1796;52.388;13.096;2022-12-07T06:56:43;3.10;99.90
3564;DHT22;1796;52.388;13.096;2022-12-07T06:59:10;3.10;99.90
3564;DHT22;1796;52.388;13.096;2022-12-07T07:01:37;3.10;99.90
3564;DHT22;1796;52.388;13.096;2022-12-07T07:04:04;3.10;99.90
3564;DHT22;1796;52.388;13.096;2022-12-07T07:06:32;3.10;99.90
3564;DHT22;1796;52.388;13.096;2022-12-07T07:08:59;3.10;99.90
3564;DHT22;1796;52.388;13.096;2022-12-07T07:11:27;3.10;99.90
3564;DHT22;1796;52.388;13.096;2022-12-07T07:13:54;3.10;99.90
3564;DHT22;1796;52.388;13.096;2022-12-07T07:16:23;3.10;99.90
3564;DHT22;1796;52.388;13.096;2022-12-07T07:18:50;3.10;99.90
3564;DHT22;1796;52.388;13.096;2022-12-07T07:21:16;3.10;99.90
3564;DHT22;1796;52.388;13.096;2022-12-07T07:23:43;3.20;99.90
3564;DHT22;1796;52.388;13.096;2022-12-07T07:26:10;3.10;99.90
3564;DHT22;1796;52.388;13.096;2022-12-07T07:28:38;3.10;99.90
3564;DHT22;1796;52.388;13.096;2022-12-07T07:31:05;3.10;99.90
3564;DHT22;1796;52.388;13.096;2022-12-07T07:33:32;3.10;99.90
3564;DHT22;1796;52.388;13.096;2022-12-07T07:35:59;3.10;99.90
3564;DHT22;1796;52.388;13.096;2022-12-07T07:38:26;3.10;99.90
3564;DHT22;1796;52.388;13.096;2022-12-07T07:40:53;3.20;99.90
3564;DHT22;1796;52.388;13.096;2022-12-07T07:43:20;3.10;99.90
3564;DHT22;1796;52.388;13.096;2022-12-07T07:45:48;3.10;99.90
3564;DHT22;1796;52.388;13.096;2022-12-07T07:48:15;3.20;99.90
3564;DHT22;1796;52.388;13.096;2022-12-07T07:50:42;3.30;99.90
3564;DHT22;1796;52.388;13.096;2022-12-07T07:53:08;3.30;99.90
3564;DHT22;1796;52.388;13.096;2022-12-07T07:55:35;3.30;99.90
3564;DHT22;1796;52.388;13.096;2022-12-07T07:58:02;3.30;99.90
3564;DHT22;1796;52.388;13.096;2022-12-07T08:00:29;3.30;99.90
3564;DHT22;1796;52.388;13.096;2022-12-07T08:02:57;3.30;99.90
3564;DHT22;1796;52.388;13.096;2022-12-07T08:05:24;3.30;99.90
3564;DHT22;1796;52.388;13.096;2022-12-07T08:07:51;3.30;99.90
3564;DHT22;1796;52.388;13.096;2022-12-07T08:10:18;3.30;99.90
3564;DHT22;1796;52.388;13.096;2022-12-07T08:12:45;3.30;99.90
3564;DHT22;1796;52.388;13.096;2022-12-07T08:15:30;3.30;99.90
3564;DHT22;1796;52.388;13.096;2022-12-07T08:17:59;3.30;99.90
3564;DHT22;1796;52.388;13.096;2022-12-07T08:20:26;3.40;99.90
3564;DHT22;1796;52.388;13.096;2022-12-07T08:22:53;3.40;99.90
3564;DHT22;1796;52.388;13.096;2022-12-07T08:25:20;3.40;99.90
3564;DHT22;1796;52.388;13.096;2022-12-07T08:27:47;3.40;99.90
3564;DHT22;1796;52.388;13.096;2022-12-07T08:30:14;3.50;99.90
3564;DHT22;1796;52.388;13.096;2022-12-07T08:32:41;3.50;99.90
3564;DHT22;1796;52.388;13.096;2022-12-07T08:35:10;3.50;99.90
3564;DHT22;1796;52.388;13.096;2022-12-07T08:37:37;3.60;99.90
3564;DHT22;1796;52.388;13.096;2022-12-07T08:40:05;3.60;99.90
3564;DHT22;1796;52.388;13.096;2022-12-07T08:42:33;3.60;99.90
3564;DHT22;1796;52.388;13.096;2022-12-07T08:45:06;3.70;99.90
3564;DHT22;1796;52.388;13.096;2022-12-07T08:47:34;3.70;99.90
3564;DHT22;1796;52.388;13.096;2022-12-07T08:50:04;3.70;99.90
3564;DHT22;1796;52.388;13.096;2022-12-07T08:52:34;3.80;99.90
3564;DHT22;1796;52.388;13.096;2022-12-07T08:55:02;3.70;99.90
3564;DHT22;1796;52.388;13.096;2022-12-07T08:57:30;3.80;99.90
3564;DHT22;1796;52.388;13.096;2022-12-07T08:59:58;3.80;99.90
3564;DHT22;1796;52.388;13.096;2022-12-07T09:02:25;3.80;99.90
3564;DHT22;1796;52.388;13.096;2022-12-07T09:04:52;3.80;99.90
3564;DHT22;1796;52.388;13.096;2022-12-07T09:07:19;3.80;99.90
3564;DHT22;1796;52.388;13.096;2022-12-07T09:09:47;3.80;99.90
3564;DHT22;1796;52.388;13.096;2022-12-07T09:12:14;3.80;99.90
3564;DHT22;1796;52.388;13.096;2022-12-07T09:14:41;3.80;99.90
3564;DHT22;1796;52.388;13.096;2022-12-07T09:17:09;3.70;99.90
3564;DHT22;1796;52.388;13.096;2022-12-07T09:19:36;3.60;99.90
3564;DHT22;1796;52.388;13.096;2022-12-07T09:22:03;3.50;99.90
3564;DHT22;1796;52.388;13.096;2022-12-07T09:24:31;3.40;99.90
3564;DHT22;1796;52.388;13.096;2022-12-07T09:26:59;3.50;99.90
3564;DHT22;1796;52.388;13.096;2022-12-07T09:29:26;3.50;99.90
3564;DHT22;1796;52.388;13.096;2022-12-07T09:31:53;3.50;99.90
3564;DHT22;1796;52.388;13.096;2022-12-07T09:34:20;3.70;99.90
3564;DHT22;1796;52.388;13.096;2022-12-07T09:36:47;3.70;99.90
3564;DHT22;1796;52.388;13.096;2022-12-07T09:39:14;3.80;99.90
3564;DHT22;1796;52.388;13.096;2022-12-07T09:41:43;3.80;99.90
3564;DHT22;1796;52.388;13.096;2022-12-07T09:44:14;3.70;99.90
3564;DHT22;1796;52.388;13.096;2022-12-07T09:46:43;3.60;99.90
3564;DHT22;1796;52.388;13.096;2022-12-07T09:49:12;3.50;99.90
3564;DHT22;1796;52.388;13.096;2022-12-07T09:51:41;3.50;99.90
3564;DHT22;1796;52.388;13.096;2022-12-07T09:54:08;3.50;99.90
3564;DHT22;1796;52.388;13.096;2022-12-07T09:56:36;3.40;99.90
3564;DHT22;1796;52.388;13.096;2022-12-07T09:59:05;3.50;99.90
3564;DHT22;1796;52.388;13.096;2022-12-07T10:01:33;3.60;99.90
3564;DHT22;1796;52.388;13.096;2022-12-07T10:04:06;3.80;99.90
3564;DHT22;1796;52.388;13.096;2022-12-07T10:06:35;3.80;99.90
3564;DHT22;1796;52.388;13.096;2022-12-07T10:09:09;3.90;99.90
3564;DHT22;1796;52.388;13.096;2022-12-07T10:11:58;4.10;99.90
3564;DHT22;1796;52.388;13.096;2022-12-07T10:14:27;4.00;99.90
3564;DHT22;1796;52.388;13.096;2022-12-07T10:16:56;4.00;99.90
3564;DHT22;1796;52.388;13.096;2022-12-07T10:19:25;3.90;99.90
3564;DHT22;1796;52.388;13.096;2022-12-07T10:22:09;4.00;99.90
3564;DHT22;1796;52.388;13.096;2022-12-07T10:24:36;3.90;99.90
3564;DHT22;1796;52.388;13.096;2022-12-07T10:27:05;3.90;99.90
3564;DHT22;1796;52.388;13.096;2022-12-07T10:29:47;4.00;99.90
3564;DHT22;1796;52.388;13.096;2022-12-07T10:32:29;4.10;99.90
3564;DHT22;1796;52.388;13.096;2022-12-07T10:35:19;4.00;99.90
3564;DHT22;1796;52.388;13.096;2022-12-07T10:37:46;4.20;99.90
3564;DHT22;1796;52.388;13.096;2022-12-07T10:40:31;4.40;99.90
3564;DHT22;1796;52.388;13.096;2022-12-07T10:43:13;4.40;99.90
3564;DHT22;1796;52.388;13.096;2022-12-07T10:46:04;4.30;99.90
3564;DHT22;1796;52.388;13.096;2022-12-07T10:48:38;4.20;99.90
3564;DHT22;1796;52.388;13.096;2022-12-07T10:51:13;4.30;99.90
3564;DHT22;1796;52.388;13.096;2022-12-07T10:53:52;4.40;99.90
3564;DHT22;1796;52.388;13.096;2022-12-07T10:56:43;4.40;99.90
3564;DHT22;1796;52.388;13.096;2022-12-07T10:59:29;4.30;99.90
3564;DHT22;1796;52.388;13.096;2022-12-07T11:02:19;4.30;99.90
3564;DHT22;1796;52.388;13.096;2022-12-07T11:04:59;4.10;99.90
3564;DHT22;1796;52.388;13.096;2022-12-07T11:07:38;4.10;99.90
3564;DHT22;1796;52.388;13.096;2022-12-07T11:10:11;4.20;99.90
3564;DHT22;1796;52.388;13.096;2022-12-07T11:12:50;4.20;99.90
3564;DHT22;1796;52.388;13.096;2022-12-07T11:15:24;4.00;99.90
3564;DHT22;1796;52.388;13.096;2022-12-07T11:17:58;3.90;99.90
3564;DHT22;1796;52.388;13.096;2022-12-07T11:20:37;4.00;99.90
3564;DHT22;1796;52.388;13.096;2022-12-07T11:23:16;3.90;99.90
3564;DHT22;1796;52.388;13.096;2022-12-07T11:25:51;4.00;99.90
3564;DHT22;1796;52.388;13.096;2022-12-07T11:28:28;4.10;99.90
3564;DHT22;1796;52.388;13.096;2022-12-07T11:31:08;4.20;99.90
3564;DHT22;1796;52.388;13.096;2022-12-07T11:33:43;4.30;99.90
3564;DHT22;1796;52.388;13.096;2022-12-07T11:36:24;4.40;99.90
3564;DHT22;1796;52.388;13.096;2022-12-07T11:39:00;4.50;99.90
3564;DHT22;1796;52.388;13.096;2022-12-07T11:41:31;4.50;99.90
3564;DHT22;1796;52.388;13.096;2022-12-07T11:44:01;4.60;99.90
3564;DHT22;1796;52.388;13.096;2022-12-07T11:46:43;4.70;99.90
3564;DHT22;1796;52.388;13.096;2022-12-07T11:49:17;4.70;99.90
3564;DHT22;1796;52.388;13.096;2022-12-07T11:51:50;4.60;99.90
3564;DHT22;1796;52.388;13.096;2022-12-07T11:54:21;4.60;99.90
3564;DHT22;1796;52.388;13.096;2022-12-07T11:56:51;4.60;99.90
3564;DHT22;1796;52.388;13.096;2022-12-07T11:59:25;4.60;99.90
3564;DHT22;1796;52.388;13.096;2022-12-07T12:01:57;4.70;99.90
3564;DHT22;1796;52.388;13.096;2022-12-07T12:04:35;4.70;99.90
3564;DHT22;1796;52.388;13.096;2022-12-07T12:07:10;4.70;99.90
3564;DHT22;1796;52.388;13.096;2022-12-07T12:09:44;4.70;99.90
3564;DHT22;1796;52.388;13.096;2022-12-07T12:12:46;4.70;99.90
3564;DHT22;1796;52.388;13.096;2022-12-07T12:15:24;4.70;99.90
3564;DHT22;1796;52.388;13.096;2022-12-07T12:18:30;4.70;99.90
3564;DHT22;1796;52.388;13.096;2022-12-07T12:21:06;4.80;99.90
3564;DHT22;1796;52.388;13.096;2022-12-07T12:23:40;4.80;99.90
3564;DHT22;1796;52.388;13.096;2022-12-07T12:26:15;4.80;99.90
3564;DHT22;1796;52.388;13.096;2022-12-07T12:28:52;4.80;99.90
3564;DHT22;1796;52.388;13.096;2022-12-07T12:31:36;4.80;99.90
3564;DHT22;1796;52.388;13.096;2022-12-07T12:34:33;4.90;99.90
3564;DHT22;1796;52.388;13.096;2022-12-07T12:37:00;4.90;99.90
3564;DHT22;1796;52.388;13.096;2022-12-07T12:39:27;4.90;99.90
3564;DHT22;1796;52.388;13.096;2022-12-07T12:41:58;4.90;99.90
3564;DHT22;1796;52.388;13.096;2022-12-07T12:44:43;4.90;99.90
3564;DHT22;1796;52.388;13.096;2022-12-07T12:50:27;4.80;99.90
3564;DHT22;1796;52.388;13.096;2022-12-07T12:53:15;4.90;99.90
3564;DHT22;1796;52.388;13.096;2022-12-07T12:58:30;4.90;99.90
3564;DHT22;1796;52.388;13.096;2022-12-07T13:04:38;4.70;99.90
3564;DHT22;1796;52.388;13.096;2022-12-07T13:07:12;4.70;99.90
3564;DHT22;1796;52.388;13.096;2022-12-07T13:09:42;4.60;99.90
3564;DHT22;1796;52.388;13.096;2022-12-07T13:12:14;4.60;99.90
3564;DHT22;1796;52.388;13.096;2022-12-07T13:14:54;4.70;99.90
3564;DHT22;1796;52.388;13.096;2022-12-07T13:17:59;4.60;99.90
3564;DHT22;1796;52.388;13.096;2022-12-07T13:20:49;4.60;99.90
3564;DHT22;1796;52.388;13.096;2022-12-07T13:23:23;4.50;99.90
3564;DHT22;1796;52.388;13.096;2022-12-07T13:26:16;4.50;99.90
3564;DHT22;1796;52.388;13.096;2022-12-07T13:28:45;4.50;99.90
3564;DHT22;1796;52.388;13.096;2022-12-07T13:31:30;4.50;99.90
3564;DHT22;1796;52.388;13.096;2022-12-07T13:33:58;4.50;99.90
3564;DHT22;1796;52.388;13.096;2022-12-07T13:36:26;4.40;99.90
3564;DHT22;1796;52.388;13.096;2022-12-07T13:38:57;4.40;99.90
3564;DHT22;1796;52.388;13.096;2022-12-07T13:41:26;4.40;99.90
3564;DHT22;1796;52.388;13.096;2022-12-07T13:44:00;4.40;99.90
3564;DHT22;1796;52.388;13.096;2022-12-07T13:46:40;4.40;99.90
3564;DHT22;1796;52.388;13.096;2022-12-07T13:49:18;4.40;99.90
3564;DHT22;1796;52.388;13.096;2022-12-07T13:51:45;4.30;99.90
3564;DHT22;1796;52.388;13.096;2022-12-07T13:54:14;4.20;99.90
3564;DHT22;1796;52.388;13.096;2022-12-07T13:56:41;4.20;99.90
3564;DHT22;1796;52.388;13.096;2022-12-07T13:59:14;4.20;99.90
3564;DHT22;1796;52.388;13.096;2022-12-07T14:01:41;4.20;99.90
3564;DHT22;1796;52.388;13.096;2022-12-07T14:04:33;4.20;99.90
3564;DHT22;1796;52.388;13.096;2022-12-07T14:07:22;4.20;99.90
3564;DHT22;1796;52.388;13.096;2022-12-07T14:09:59;4.20;99.90
3564;DHT22;1796;52.388;13.096;2022-12-07T14:12:28;4.20;99.90
3564;DHT22;1796;52.388;13.096;2022-12-07T14:14:56;4.10;99.90
3564;DHT22;1796;52.388;13.096;2022-12-07T14:17:25;4.10;99.90
3564;DHT22;1796;52.388;13.096;2022-12-07T14:19:54;4.00;99.90
3564;DHT22;1796;52.388;13.096;2022-12-07T14:22:25;3.90;99.90
3564;DHT22;1796;52.388;13.096;2022-12-07T14:25:17;3.90;99.90
3564;DHT22;1796;52.388;13.096;2022-12-07T14:27:49;4.00;99.90
3564;DHT22;1796;52.388;13.096;2022-12-07T14:30:18;3.90;99.90
3564;DHT22;1796;52.388;13.096;2022-12-07T14:32:48;3.90;99.90
3564;DHT22;1796;52.388;13.096;2022-12-07T14:35:18;3.80;99.90
3564;DHT22;1796;52.388;13.096;2022-12-07T14:37:47;3.80;99.90
3564;DHT22;1796;52.388;13.096;2022-12-07T14:40:17;3.70;99.90
3564;DHT22;1796;52.388;13.096;2022-12-07T14:42:45;3.60;99.90
3564;DHT22;1796;52.388;13.096;2022-12-07T14:45:16;3.50;99.90
3564;DHT22;1796;52.388;13.096;2022-12-07T14:47:43;3.40;99.90
3564;DHT22;1796;52.388;13.096;2022-12-07T14:50:12;3.40;99.90
3564;DHT22;1796;52.388;13.096;2022-12-07T14:52:39;3.30;99.90
3564;DHT22;1796;52.388;13.096;2022-12-07T14:55:13;3.30;99.90
3564;DHT22;1796;52.388;13.096;2022-12-07T14:57:42;3.20;99.90
3564;DHT22;1796;52.388;13.096;2022-12-07T15:00:13;3.10;99.90
3564;DHT22;1796;52.388;13.096;2022-12-07T15:02:41;3.10;99.90
3564;DHT22;1796;52.388;13.096;2022-12-07T15:05:08;3.10;99.90
3564;DHT22;1796;52.388;13.096;2022-12-07T15:07:35;3.10;99.90
3564;DHT22;1796;52.388;13.096;2022-12-07T15:10:03;3.00;99.90
3564;DHT22;1796;52.388;13.096;2022-12-07T15:12:30;3.00;99.90
3564;DHT22;1796;52.388;13.096;2022-12-07T15:14:58;3.00;99.90
3564;DHT22;1796;52.388;13.096;2022-12-07T15:17:27;2.90;99.90
3564;DHT22;1796;52.388;13.096;2022-12-07T15:19:53;2.90;99.90
3564;DHT22;1796;52.388;13.096;2022-12-07T15:22:20;2.80;99.90
3564;DHT22;1796;52.388;13.096;2022-12-07T15:24:47;2.70;99.90
3564;DHT22;1796;52.388;13.096;2022-12-07T15:27:14;2.70;99.90
3564;DHT22;1796;52.388;13.096;2022-12-07T15:29:41;2.70;99.90
3564;DHT22;1796;52.388;13.096;2022-12-07T15:32:09;2.60;99.90
3564;DHT22;1796;52.388;13.096;2022-12-07T15:34:36;2.60;99.90
3564;DHT22;1796;52.388;13.096;2022-12-07T15:37:03;2.60;99.90
3564;DHT22;1796;52.388;13.096;2022-12-07T15:39:30;2.50;99.90
3564;DHT22;1796;52.388;13.096;2022-12-07T15:41:57;2.50;99.90
3564;DHT22;1796;52.388;13.096;2022-12-07T15:44:23;2.50;99.90
3564;DHT22;1796;52.388;13.096;2022-12-07T15:47:09;2.50;99.90
3564;DHT22;1796;52.388;13.096;2022-12-07T15:49:36;2.40;99.90
3564;DHT22;1796;52.388;13.096;2022-12-07T15:52:03;2.40;99.90
3564;DHT22;1796;52.388;13.096;2022-12-07T15:54:30;2.40;99.90
3564;DHT22;1796;52.388;13.096;2022-12-07T15:56:58;2.40;99.90
3564;DHT22;1796;52.388;13.096;2022-12-07T15:59:27;2.40;99.90
3564;DHT22;1796;52.388;13.096;2022-12-07T16:01:54;2.40;99.90
3564;DHT22;1796;52.388;13.096;2022-12-07T16:04:22;2.40;99.90
3564;DHT22;1796;52.388;13.096;2022-12-07T16:06:49;2.40;99.90
3564;DHT22;1796;52.388;13.096;2022-12-07T16:09:16;2.40;99.90
3564;DHT22;1796;52.388;13.096;2022-12-07T16:11:43;2.40;99.90
3564;DHT22;1796;52.388;13.096;2022-12-07T16:14:10;2.40;99.90
3564;DHT22;1796;52.388;13.096;2022-12-07T16:16:37;2.40;99.90
3564;DHT22;1796;52.388;13.096;2022-12-07T16:19:05;2.40;99.90
3564;DHT22;1796;52.388;13.096;2022-12-07T16:21:35;2.40;99.90
3564;DHT22;1796;52.388;13.096;2022-12-07T16:24:02;2.40;99.90
3564;DHT22;1796;52.388;13.096;2022-12-07T16:26:30;2.30;99.90
3564;DHT22;1796;52.388;13.096;2022-12-07T16:28:57;2.30;99.90
3564;DHT22;1796;52.388;13.096;2022-12-07T16:31:26;2.30;99.90
3564;DHT22;1796;52.388;13.096;2022-12-07T16:33:54;2.30;99.90
3564;DHT22;1796;52.388;13.096;2022-12-07T16:36:22;2.30;99.90
3564;DHT22;1796;52.388;13.096;2022-12-07T16:38:51;2.30;99.90